Tiempo atmosférico en la estación meteorológica de Monreal/Elo, Navarra (585 m.)



Fecha
DESCASC
Temp. máxima en grados centígrados (hora)
DESCASC
Temp. mínima en grados centígrados (hora)
DESCASC
Temp. media en grados centígrados
DESCASC
Racha de viento máxima en m/sg (hora)
DESCASC
Velocidad máxima media en intervalos de 10 minutos(hora)
DESCASC
Precipitaciones diarias en mm
DESCASC
Precipitaciones de 00:00 a 06:00 en mm
DESCASC
Precipitaciones de 06:00 a 12:00 en mm
DESCASC
Precipitaciones de 12:00 a 18:00 en mm
DESCASC
Precipitaciones de 18:00 a 24:00 en mm
DESCASC
19-01-2020 5.2 (09:00) 1.4 (23:50) 3.3 27.5 (20:30) 15.28 (16:10) 3.8 3.8 0 0 0
18-01-2020 10.4 (13:40) 0 (01:20) 5.2 14.72 (14:10) 10 (13:20) 12.2 0 0 0 12.2
17-01-2020 10.6 (00:00) 1.2 (23:50) 5.9 13.89 (00:20) 10 (00:10) 3.6 0 3.2 0.4 0
16-01-2020 13.7 (15:00) 5.8 (00:00) 9.8 17.5 (19:40) 12.22 (17:40) 0 0 0 0 0
15-01-2020 10.5 (15:30) 4.4 (00:00) 7.5 12.5 (02:10) 9.44 (02:00) 0 0 0 0 0
14-01-2020 10.7 (15:30) -0.9 (-00:0) 4.9 11.11 (23:30) 7.78 (23:30) 0 0 0 0 0
13-01-2020 7.2 (15:00) -1.7 (-00:0) 2.7 5.83 (13:30) 4.17 (13:30) 0 0 0 0 0
12-01-2020 10.1 (15:10) -2.1 (-00:0) 4 10.28 (13:10) 8.06 (13:20) 0 0 0 0 0
11-01-2020 9.3 (15:50) -0.9 (-00:0) 4.2 12.22 (06:50) 8.61 (07:00) 0 0 0 0 0
10-01-2020 7.4 (14:10) 4.2 (00:00) 5.8 13.06 (21:20) 8.89 (13:50) 0.4 0 0.4 0 0
09-01-2020 11 (15:40) -0.3 (00:00) 5.3 10 (15:50) 7.5 (15:50) 2 0 0 0 2
08-01-2020 15.3 (14:20) 1 (00:00) 8.2 12.78 (03:20) 9.17 (02:40) 0 0 0 0 0
07-01-2020 12.6 (16:10) 0.5 (00:00) 6.6 10.56 (23:59) 7.5 (15:30) 0 0 0 0 0
06-01-2020 8.3 (15:00) -1.4 (-00:0) 3.5 9.72 (21:20) 7.5 (21:40) 0 0 0 0 0
05-01-2020 11.5 (15:40) 0.6 (00:00) 6.1 11.94 (09:50) 8.89 (06:10) 0 0 0 0 0
04-01-2020 9.4 (14:30) 4.1 (00:00) 6.7 15.56 (16:20) 11.11 (16:10) 0 0 0 0 0
03-01-2020 7.1 (20:30) -1.9 (-00:0) 2.6 8.89 (18:10) 7.22 (18:40) 0.2 0 0.2 0 0
02-01-2020 0.7 (16:10) -2.5 (-00:0) -0.9 3.33 (20:20) 2.22 (20:20) 0.2 0 0.2 0 0
01-01-2020 2.3 (14:20) -1.1 (-00:0) 0.6 4.17 (17:20) 2.22 (17:20) 0.2 0.2 0 0 0
31-12-2019 1.3 (13:30) -0.9 (-00:0) 0.2 3.33 (15:10) 2.22 (15:20) 0.2 0.2 0 0 0
30-12-2019 -- (--) -- (--) -- -- (--) -- (--) -- 0 0 0 --
29-12-2019 6.6 (11:30) -1.2 (-00:0) 2.7 3.61 (14:30) 2.78 (14:20) 0 0 0 0 0
28-12-2019 14.3 (15:00) 2.9 (00:00) 8.6 9.44 (11:50) 7.78 (11:50) 0 0 0 0 0
27-12-2019 10 (16:20) -0.1 (00:00) 4.9 5.83 (00:40) 4.17 (14:40) 0 0 0 0 0
26-12-2019 10.2 (15:30) 4 (00:00) 7.1 14.44 (10:40) 10.28 (10:10) 0 0 0 0 0
25-12-2019 14.9 (15:00) 3.5 (00:00) 9.2 4.17 (16:20) 3.61 (16:20) 0 0 0 0 0
24-12-2019 12.8 (13:10) 3.3 (00:00) 8.1 5 (00:50) 2.78 (00:40) 0 0 0 0 0

Gráficas

Temp. máximas Temp. mínimas Temp. medias Precipitaciones Rachas de viento máximas Velocidades máximas media en intervalos de 10 minutos

Datos horarios

Fecha y hora oficial Temperatura (ºC) Velocidad del viento (km/h) Dirección del viento Racha (km/h) Dirección de racha Precipitación (mm) Presión (hPa) Tendencia (hPa) Humedad (%)
2020-01-22 23:00:00 4.8 8 Sudeste 9 Sudeste 0 -- -- 97
2020-01-22 22:00:00 5.3 5 Noroeste 12 Sudoeste 0 -- -- 95
2020-01-22 21:00:00 5.4 8 Sudeste 13 Sur 0.2 -- -- 95
2020-01-22 20:00:00 6 9 Sudeste 12 Sudeste 0 -- -- 92
2020-01-22 19:00:00 7.1 9 Norte 15 Noroeste 0 -- -- 83
2020-01-22 18:00:00 7 13 Noroeste 18 Noroeste 0 -- -- 83
2020-01-22 17:00:00 7.6 6 Noroeste 14 Noroeste 0 -- -- 81
2020-01-22 16:00:00 8.1 10 Noroeste 13 Noroeste 0 -- -- 78
2020-01-22 15:00:00 8 6 Noroeste 16 Noroeste 0 -- -- 77
2020-01-22 14:00:00 7.9 10 Noroeste 14 Oeste 0 -- -- 78
2020-01-22 13:00:00 7.7 6 Noroeste 11 Noroeste 0 -- -- 79
2020-01-22 12:00:00 5.5 4 Oeste 6 Oeste 0 -- -- 84
2020-01-22 11:00:00 3.4 2 Sur 5 Este 0 -- -- 90
2020-01-22 10:00:00 1.7 0 Calma 6 Sudeste 0 -- -- 98
2020-01-22 09:00:00 0.3 3 Sudeste 6 Sudeste 0 -- -- 98
2020-01-22 08:00:00 0.6 2 Sudeste 5 Este 0 -- -- 98
2020-01-22 07:00:00 0.6 5 Sudeste 6 Sudeste 0 -- -- 98
2020-01-22 06:00:00 1.8 2 Nordeste 6 Nordeste 0 -- -- 97
2020-01-22 05:00:00 2 2 Norte 6 Sudeste 0 -- -- 94
2020-01-22 04:00:00 2.1 4 Sudeste 6 Sudeste 0 -- -- 97
2020-01-22 03:00:00 2 0 Calma 6 Este 0 -- -- 97
2020-01-22 02:00:00 1.5 6 Noroeste 10 Noroeste 0 -- -- 97
2020-01-22 01:00:00 2 3 Noroeste 21 Noroeste 0 -- -- 96
2020-01-22 00:00:00 2 14 Noroeste 26 Noroeste 0 -- -- 96
2020-01-21 23:00:00 2 20 Noroeste 26 Noroeste 0 -- -- 94
2020-01-21 22:00:00 1.6 17 Noroeste 27 Noroeste 0 -- -- 94
2020-01-21 21:00:00 1.6 23 Noroeste 32 Noroeste 0 -- -- 92
2020-01-21 20:00:00 1.4 25 Noroeste 32 Noroeste 0 -- -- 91
2020-01-21 19:00:00 1.5 22 Noroeste 36 Noroeste 0 -- -- 90
2020-01-21 18:00:00 1.6 22 Noroeste 37 Noroeste 0 -- -- 89
2020-01-21 17:00:00 1.6 21 Noroeste 33 Noroeste 0 -- -- 88
2020-01-21 16:00:00 1.2 24 Noroeste 38 Noroeste 0 -- -- 91
2020-01-21 15:00:00 1.2 25 Noroeste 34 Noroeste 0 -- -- 92
2020-01-21 14:00:00 1.4 25 Noroeste 36 Noroeste 0 -- -- 90
2020-01-21 13:00:00 1.4 26 Noroeste 41 Noroeste 0 -- -- 89
2020-01-21 12:00:00 1.5 22 Noroeste 35 Noroeste 0 -- -- 87
2020-01-21 11:00:00 0.9 29 Noroeste 39 Noroeste 0 -- -- 88
2020-01-21 10:00:00 0.7 26 Noroeste 36 Noroeste 0 -- -- 84
2020-01-21 09:00:00 0 27 Noroeste 37 Noroeste 0 -- -- 87
2020-01-21 08:00:00 0.2 23 Noroeste 32 Noroeste 0 -- -- 87
2020-01-21 07:00:00 0.3 14 Noroeste 32 Noroeste 0 -- -- 85
2020-01-21 06:00:00 0.6 18 Noroeste 35 Noroeste 0 -- -- 84
2020-01-21 05:00:00 0.6 23 Noroeste 29 Noroeste 0 -- -- 83
2020-01-21 04:00:00 0.3 18 Noroeste 30 Noroeste 0 -- -- 83
2020-01-21 03:00:00 0.5 22 Noroeste 28 Noroeste 0 -- -- 79
2020-01-21 02:00:00 0.2 19 Noroeste 26 Noroeste 0 -- -- 81
2020-01-21 01:00:00 0 19 Noroeste 28 Noroeste 0 -- -- 82
2020-01-21 00:00:00 -0.8 21 Noroeste 28 Noroeste 0 -- -- 85
2020-01-20 23:00:00 -0.8 19 Noroeste 32 Noroeste 0 -- -- 84
2020-01-20 22:00:00 -0.8 17 Noroeste 28 Noroeste 0 -- -- 85
2020-01-20 21:00:00 0 24 Noroeste 36 Noroeste 0 -- -- 81
2020-01-20 20:00:00 0.1 26 Noroeste 37 Noroeste 0 -- -- 80
2020-01-20 19:00:00 0.4 24 Noroeste 41 Noroeste 0 -- -- 78
2020-01-20 18:00:00 0.8 30 Noroeste 46 Noroeste 0 -- -- 75
2020-01-20 17:00:00 1.2 31 Noroeste 44 Noroeste 0 -- -- 73
2020-01-20 16:00:00 1.9 30 Noroeste 39 Noroeste 0 -- -- 67
2020-01-20 15:00:00 2.2 28 Noroeste 44 Noroeste 0 -- -- 63
2020-01-20 14:00:00 1.9 31 Noroeste 44 Oeste 0 -- -- 67
2020-01-20 13:00:00 1.5 25 Noroeste 38 Noroeste 0 -- -- 66
2020-01-20 12:00:00 1.1 27 Noroeste 37 Noroeste 0 -- -- 65
2020-01-20 11:00:00 0.5 26 Noroeste 40 Oeste 0 -- -- 67
2020-01-20 10:00:00 -0.4 27 Noroeste 38 Noroeste 0 -- -- 70
2020-01-20 09:00:00 -1 29 Noroeste 50 Noroeste 0 -- -- 73
2020-01-20 08:00:00 -0.9 32 Noroeste 51 Noroeste 0 -- -- 73
2020-01-20 07:00:00 -0.9 33 Noroeste 48 Noroeste 0 -- -- 74
2020-01-20 06:00:00 -0.8 31 Noroeste 51 Noroeste 0 -- -- 74
2020-01-20 05:00:00 -0.7 32 Noroeste 52 Noroeste 0 -- -- 74
2020-01-20 04:00:00 -0.3 30 Noroeste 60 Noroeste 0 -- -- 73
2020-01-20 03:00:00 0.2 37 Noroeste 71 Noroeste 0 -- -- 71
2020-01-20 02:00:00 0.6 38 Noroeste 60 Noroeste 0 -- -- 69
2020-01-20 01:00:00 0.9 30 Noroeste 72 Noroeste 0 -- -- 67
2020-01-20 00:00:00 1.4 38 Noroeste 74 Norte 0 -- -- 63
2020-01-19 23:00:00 1.7 46 Noroeste 94 Norte 0 -- -- 63
2020-01-19 22:00:00 2 50 Noroeste 98 Norte 0 -- -- 62
2020-01-19 21:00:00 2.4 47 Noroeste 99 Norte 0 -- -- 61
2020-01-19 20:00:00 2.7 48 Noroeste 86 Noroeste 0 -- -- 59
2020-01-19 19:00:00 2.8 46 Noroeste 86 Noroeste 0 -- -- 60
2020-01-19 18:00:00 3 46 Noroeste 80 Norte 0 -- -- 59
2020-01-19 17:00:00 3.5 50 Noroeste 85 Noroeste 0 -- -- 61
2020-01-19 16:00:00 4 45 Noroeste 87 Noroeste 0 -- -- 60
2020-01-19 15:00:00 3.7 54 Noroeste 81 Noroeste 0 -- -- 65
2020-01-19 14:00:00 3.3 49 Noroeste 72 Norte 0 -- -- 74
2020-01-19 13:00:00 3.4 48 Noroeste 68 Norte 0 -- -- 75
2020-01-19 12:00:00 3.5 39 Noroeste 57 Noroeste 0 -- -- 76
2020-01-19 11:00:00 3.9 29 Noroeste 54 Noroeste 0 -- -- 76
2020-01-19 10:00:00 4.3 30 Noroeste 69 Noroeste 0 -- -- 72
2020-01-19 09:00:00 5.2 40 Noroeste 70 Noroeste 0 -- -- 71
2020-01-19 08:00:00 4.5 42 Noroeste 67 Noroeste 0 -- -- 79
2020-01-19 07:00:00 4.8 36 Noroeste 63 Noroeste 0 -- -- 81
2020-01-19 06:00:00 4.9 33 Noroeste 51 Noroeste 0 -- -- 84
2020-01-19 05:00:00 4 19 Noroeste 29 Noroeste 0.2 -- -- 99
2020-01-19 04:00:00 3.6 21 Noroeste 28 Noroeste 0.6 -- -- 99
2020-01-19 03:00:00 3.7 19 Noroeste 27 Noroeste 0 -- -- 97
2020-01-19 02:00:00 3.5 14 Noroeste 17 Noroeste 0.8 -- -- 97
2020-01-19 01:00:00 3.5 9 Noroeste 14 Noroeste 2.2 -- -- 96
2020-01-19 00:00:00 3.8 10 Noroeste 15 Noroeste 2.2 -- -- 95
2020-01-18 23:00:00 4.1 13 Noroeste 28 Noroeste 1.2 -- -- 96
2020-01-18 22:00:00 4.4 23 Noroeste 35 Noroeste 5.2 -- -- 96
2020-01-18 21:00:00 6 3 Norte 25 Sudeste 2.4 -- -- 95
2020-01-18 20:00:00 6.2 15 Sudeste 31 Sudeste 1 -- -- 92
2020-01-18 19:00:00 6.5 26 Sudeste 38 Sudeste 0.2 -- -- 88
2020-01-18 18:00:00 7.4 25 Sudeste 43 Sudeste 0 -- -- 79
2020-01-18 17:00:00 7.8 33 Este 49 Este 0 -- -- 75
2020-01-18 16:00:00 8.8 27 Sudeste 46 Sudeste 0 -- -- 68
2020-01-18 15:00:00 9 32 Sudeste 53 Sudeste 0 -- -- 66
2020-01-18 14:00:00 9.7 36 Sudeste 49 Sudeste 0 -- -- 63
2020-01-18 13:00:00 9.6 32 Sudeste 42 Sudeste 0 -- -- 64
2020-01-18 12:00:00 7.6 23 Sudeste 37 Sudeste 0 -- -- 69
2020-01-18 11:00:00 5.4 25 Sudeste 31 Sudeste 0 -- -- 74
2020-01-18 10:00:00 3.7 19 Sudeste 26 Sur 0 -- -- 79
2020-01-18 09:00:00 2.8 10 Sur 19 Sudeste 0 -- -- 85
2020-01-18 08:00:00 2.5 10 Sudeste 16 Sudeste 0 -- -- 90
2020-01-18 07:00:00 1.8 2 Sudeste 5 Sudeste 0 -- -- 94
2020-01-18 06:00:00 2.2 2 Norte 12 Sudeste 0 -- -- 92
2020-01-18 05:00:00 1.8 4 Sudeste 10 Este 0 -- -- 94
2020-01-18 04:00:00 1.4 5 Sudeste 9 Sudeste 0 -- -- 94
2020-01-18 03:00:00 0.3 7 Sudeste 10 Sudeste 0 -- -- 96
2020-01-18 02:00:00 0.1 8 Sudeste 12 Sudeste 0 -- -- 95
2020-01-18 01:00:00 0.2 9 Sudeste 13 Sudeste 0 -- -- 95
2020-01-18 00:00:00 1.4 5 Este 12 Sudeste 0 -- -- 92
2020-01-17 23:00:00 1.8 6 Sudeste 10 Sudeste 0 -- -- 91
2020-01-17 22:00:00 3.1 5 Sur 9 Sudoeste 0 -- -- 89
2020-01-17 21:00:00 3.5 3 Este 8 Este 0 -- -- 87
2020-01-17 20:00:00 3.8 5 Este 13 Noroeste 0 -- -- 87
2020-01-17 19:00:00 5.1 7 Norte 24 Noroeste 0 -- -- 83
2020-01-17 18:00:00 6.2 22 Noroeste 42 Noroeste 0 -- -- 78
2020-01-17 17:00:00 7.3 20 Noroeste 33 Noroeste 0 -- -- 75
2020-01-17 16:00:00 7.9 19 Noroeste 36 Noroeste 0 -- -- 75
2020-01-17 15:00:00 8.7 23 Noroeste 35 Noroeste 0 -- -- 74
2020-01-17 14:00:00 7.2 21 Noroeste 33 Noroeste 0 -- -- 83
2020-01-17 13:00:00 6.8 9 Noroeste 35 Noroeste 0.4 -- -- 93
2020-01-17 12:00:00 6.7 21 Noroeste 30 Noroeste 0 -- -- 91
2020-01-17 11:00:00 7 15 Noroeste 34 Sudoeste 1.4 -- -- 90
2020-01-17 10:00:00 6.7 7 Sur 10 Sudeste 0 -- -- 95
2020-01-17 09:00:00 6.4 8 Este 30 Oeste 1.8 -- -- 92
2020-01-17 08:00:00 7.1 9 Sur 17 Sur 0 -- -- 82
2020-01-17 07:00:00 7.2 13 Sur 17 Sur 0 -- -- 82
2020-01-17 06:00:00 7.1 11 Sur 21 Sur 0 -- -- 82
2020-01-17 05:00:00 8.4 15 Sur 29 Sudeste 0 -- -- 77
2020-01-17 04:00:00 8.1 14 Sur 30 Sudeste 0 -- -- 81
2020-01-17 03:00:00 9.1 24 Sudeste 44 Sudeste 0 -- -- 76
2020-01-17 02:00:00 9.2 26 Sudeste 43 Sudeste 0 -- -- 77
2020-01-17 01:00:00 9.5 26 Sudeste 50 Sudeste 0 -- -- 75
2020-01-17 00:00:00 10.6 39 Sudeste 54 Sudeste 0 -- -- 67
2020-01-16 23:00:00 10.6 33 Sudeste 55 Sudeste 0 -- -- 67
2020-01-16 22:00:00 10.6 35 Sur 57 Sudeste 0 -- -- 69
2020-01-16 21:00:00 10.9 40 Sudeste 58 Sudeste 0 -- -- 69
2020-01-16 20:00:00 10.9 41 Sudeste 63 Sudeste 0 -- -- 71
2020-01-16 19:00:00 11.3 41 Sudeste 54 Sudeste 0 -- -- 69
2020-01-16 18:00:00 11.5 36 Sudeste 59 Sudeste 0 -- -- 70
2020-01-16 17:00:00 12.7 39 Sudeste 51 Sudeste 0 -- -- 67
2020-01-16 16:00:00 13.2 31 Sudeste 46 Sudeste 0 -- -- 67
2020-01-16 15:00:00 13.7 26 Sudeste 44 Sudeste 0 -- -- 67
2020-01-16 14:00:00 12.8 26 Sudeste 41 Sur 0 -- -- 67
2020-01-16 13:00:00 12.3 32 Sudeste 43 Sur 0 -- -- 68
2020-01-16 12:00:00 11.4 31 Sudeste 41 Sudeste 0 -- -- 71
2020-01-16 11:00:00 10 22 Sudeste 37 Sudeste 0 -- -- 76
2020-01-16 10:00:00 8 24 Sur 33 Sur 0 -- -- 80
2020-01-16 09:00:00 7.4 28 Sudeste 42 Sudeste 0 -- -- 77
2020-01-16 08:00:00 6.6 23 Sudeste 38 Sudeste 0 -- -- 79
2020-01-16 07:00:00 6.2 19 Sudeste 29 Sudeste 0 -- -- 80
2020-01-16 06:00:00 6.5 19 Sur 29 Sur 0 -- -- 79
2020-01-16 05:00:00 6.2 19 Sur 26 Sudeste 0 -- -- 81
2020-01-16 04:00:00 6.6 17 Sur 26 Sudeste 0 -- -- 79
2020-01-16 03:00:00 6.4 20 Sudeste 24 Sudeste 0 -- -- 82
2020-01-16 02:00:00 6.4 13 Sur 22 Sudeste 0 -- -- 81
2020-01-16 01:00:00 7 18 Sudeste 28 Sudeste 0 -- -- 80
2020-01-16 00:00:00 7.2 11 Sudeste 19 Sudeste 0 -- -- 79
2020-01-15 23:00:00 5.7 9 Sudeste 13 Sur 0 -- -- 83
2020-01-15 22:00:00 7 6 Sudeste 15 Sur 0 -- -- 78
2020-01-15 21:00:00 7.4 8 Sur 13 Sur 0 -- -- 76
2020-01-15 20:00:00 7.9 6 Sur 15 Sudoeste 0 -- -- 75
2020-01-15 19:00:00 8.6 9 Sudoeste 18 Sur 0 -- -- 71
2020-01-15 18:00:00 8.6 14 Sur 22 Sudeste 0 -- -- 71
2020-01-15 17:00:00 9.4 14 Sudeste 24 Sudeste 0 -- -- 68
2020-01-15 16:00:00 10.2 14 Sudeste 32 Sudeste 0 -- -- 65
2020-01-15 15:00:00 10.2 20 Sudeste 39 Sudeste 0 -- -- 66
2020-01-15 14:00:00 9.5 24 Sudeste 41 Sur 0 -- -- 67
2020-01-15 13:00:00 9 22 Sudeste 33 Sudeste 0 -- -- 70
2020-01-15 12:00:00 7.9 21 Sudeste 30 Sudeste 0 -- -- 70
2020-01-15 11:00:00 7.4 12 Sur 32 Sudeste 0 -- -- 71
2020-01-15 10:00:00 7 23 Sudeste 35 Sudeste 0 -- -- 72
2020-01-15 09:00:00 6.2 10 Sudeste 28 Sudeste 0 -- -- 75
2020-01-15 08:00:00 4.4 22 Sudeste 37 Sudeste 0 -- -- 75
2020-01-15 07:00:00 5.1 24 Sudeste 40 Este 0 -- -- 73
2020-01-15 06:00:00 4.5 19 Sudeste 41 Sudeste 0 -- -- 75
2020-01-15 05:00:00 4.8 22 Sudeste 32 Sudeste 0 -- -- 74
2020-01-15 04:00:00 4.9 24 Sudeste 37 Sudeste 0 -- -- 73
2020-01-15 03:00:00 4.9 22 Sudeste 45 Sudeste 0 -- -- 72
2020-01-15 02:00:00 5.6 34 Sudeste 44 Este 0 -- -- 68
2020-01-15 01:00:00 4.9 27 Sudeste 34 Sudeste 0 -- -- 70
2020-01-15 00:00:00 5.7 24 Sudeste 40 Sudeste 0 -- -- 68
2020-01-14 23:00:00 5.4 21 Sudeste 32 Sudeste 0 -- -- 68
2020-01-14 22:00:00 4.8 22 Sudeste 30 Sur 0 -- -- 71
2020-01-14 21:00:00 4.8 25 Sur 30 Sur 0 -- -- 72
2020-01-14 20:00:00 4.9 14 Sur 30 Sudeste 0 -- -- 72
2020-01-14 19:00:00 4.7 17 Sudeste 27 Sur 0 -- -- 72
2020-01-14 18:00:00 5.9 15 Sudeste 32 Sudeste 0 -- -- 63
2020-01-14 17:00:00 7.9 23 Sudeste 32 Sur 0 -- -- 57
2020-01-14 16:00:00 9.6 18 Sudeste 23 Sudeste 0 -- -- 52
2020-01-14 15:00:00 9.9 17 Sudeste 31 Sudeste 0 -- -- 53
2020-01-14 14:00:00 9.5 18 Sudeste 30 Sur 0 -- -- 56
2020-01-14 13:00:00 9 12 Sur 22 Sudoeste 0 -- -- 55
2020-01-14 12:00:00 7.5 10 Sudeste 21 Sudeste 0 -- -- 67
2020-01-14 11:00:00 7.6 10 Sudeste 16 Sudeste 0 -- -- 62
2020-01-14 10:00:00 4.4 3 Sudeste 10 Sudeste 0 -- -- 75
2020-01-14 09:00:00 1.4 4 Sudeste 20 Sudeste 0 -- -- 78
2020-01-14 08:00:00 -0.2 15 Sudeste 18 Sudeste 0 -- -- 86
2020-01-14 07:00:00 -0.6 9 Sudeste 11 Este 0 -- -- 94
2020-01-14 06:00:00 -0.9 5 Este 8 Sudeste 0 -- -- 96
2020-01-14 05:00:00 -0.1 4 Noroeste 14 Oeste 0 -- -- 94
2020-01-14 04:00:00 0.3 9 Noroeste 24 Noroeste 0 -- -- 92
2020-01-14 03:00:00 1.6 13 Sudeste 16 Sudeste 0 -- -- 83
2020-01-14 02:00:00 1.1 9 Sur 14 Sur 0 -- -- 84
2020-01-14 01:00:00 0.8 7 Este 14 Sudeste 0 -- -- 90
2020-01-14 00:00:00 -0.2 2 Este 13 Noroeste 0 -- -- 95
2020-01-13 23:00:00 0 10 Noroeste 17 Sudeste 0 -- -- 97
2020-01-13 22:00:00 -0.5 10 Sudeste 14 Sudeste 0 -- -- 99
2020-01-13 21:00:00 0.4 10 Sudeste 18 Sudeste 0 -- -- 98
2020-01-13 20:00:00 0.8 0 Calma 5 Noroeste 0 -- -- 98
2020-01-13 19:00:00 1.5 5 Noroeste 17 Noroeste 0 -- -- 96
2020-01-13 18:00:00 2.6 11 Noroeste 14 Noroeste 0 -- -- 93
2020-01-13 17:00:00 4.9 7 Sudeste 15 Noroeste 0 -- -- 86
2020-01-13 16:00:00 5.6 3 Oeste 18 Noroeste 0 -- -- 84
2020-01-13 15:00:00 7.2 7 Sudoeste 21 Oeste 0 -- -- 74
2020-01-13 14:00:00 5.9 0 Calma 21 Noroeste 0 -- -- 74
2020-01-13 13:00:00 5.3 6 Noroeste 13 Noroeste 0 -- -- 75
2020-01-13 12:00:00 4.7 2 Sudeste 7 Sur 0 -- -- 74
2020-01-13 11:00:00 1.9 0 Calma 11 Sudeste 0 -- -- 86
2020-01-13 10:00:00 0.4 3 Este 15 Este 0 -- -- 89
2020-01-13 09:00:00 -1.1 6 Sudeste 9 Este 0 -- -- 94
2020-01-13 08:00:00 -0.8 2 Sudeste 9 Este 0 -- -- 95
2020-01-13 07:00:00 -1.1 2 Oeste 13 Sudeste 0 -- -- 97
2020-01-13 06:00:00 -1.4 9 Sudeste 11 Sudeste 0 -- -- 96
2020-01-13 05:00:00 -1.3 7 Sudeste 12 Este 0 -- -- 98
2020-01-13 04:00:00 -0.7 0 Calma 3 Sudeste 0 -- -- 96
2020-01-13 03:00:00 0.2 0 Calma 12 Sudeste 0 -- -- 96
2020-01-13 02:00:00 0 7 Sudeste 11 Sudeste 0 -- -- 96
2020-01-13 01:00:00 0.5 7 Sudeste 10 Sudeste 0 -- -- 94
2020-01-13 00:00:00 0.7 5 Sudeste 10 Sudeste 0 -- -- 94
2020-01-12 23:00:00 1.5 8 Sudeste 12 Sudeste 0 -- -- 91
2020-01-12 22:00:00 1.9 9 Sudeste 12 Sudeste 0 -- -- 89
2020-01-12 21:00:00 3.7 3 Este 9 Noroeste 0 -- -- 82
2020-01-12 20:00:00 5.5 10 Noroeste 22 Noroeste 0 -- -- 77
2020-01-12 19:00:00 6 14 Noroeste 23 Noroeste 0 -- -- 76
2020-01-12 18:00:00 7.2 15 Noroeste 27 Noroeste 0 -- -- 71
2020-01-12 17:00:00 9.1 18 Noroeste 25 Noroeste 0 -- -- 64
2020-01-12 16:00:00 10.1 14 Noroeste 36 Noroeste 0 -- -- 59
2020-01-12 15:00:00 9.5 26 Noroeste 34 Noroeste 0 -- -- 59
2020-01-12 14:00:00 9.5 24 Noroeste 37 Noroeste 0 -- -- 60
2020-01-12 13:00:00 8 27 Noroeste 36 Noroeste 0 -- -- 63
2020-01-12 12:00:00 6.6 24 Noroeste 34 Noroeste 0 -- -- 68
2020-01-12 11:00:00 4.9 22 Noroeste 30 Noroeste 0 -- -- 72
2020-01-12 10:00:00 2.7 22 Noroeste 30 Noroeste 0 -- -- 78
2020-01-12 09:00:00 -1.2 12 Noroeste 18 Noroeste 0 -- -- 96
2020-01-12 08:00:00 -1 6 Noroeste 11 Noroeste 0 -- -- 94
2020-01-12 07:00:00 -1.4 3 Este 6 Sudeste 0 -- -- 97
2020-01-12 06:00:00 -1.2 0 Calma 5 Oeste 0 -- -- 98
2020-01-12 05:00:00 -1.4 0 Calma 3 Oeste 0 -- -- 97
2020-01-12 04:00:00 -0.9 0 Calma 6 Sudeste 0 -- -- 97
2020-01-12 03:00:00 -1.9 6 Sudeste 7 Sudeste 0 -- -- 96
2020-01-12 02:00:00 -1.5 5 Sudeste 8 Sudeste 0 -- -- 96
2020-01-12 01:00:00 -0.7 6 Sudeste 9 Sudeste 0 -- -- 94
2020-01-12 00:00:00 -0.3 8 Sudeste 12 Sudeste 0 -- -- 94
2020-01-11 23:00:00 0.5 7 Sudeste 11 Sudeste 0 -- -- 91
2020-01-11 22:00:00 0.3 5 Sudeste 8 Sudeste 0 -- -- 93
2020-01-11 21:00:00 1.2 6 Sudeste 8 Sudeste 0 -- -- 90
2020-01-11 20:00:00 1.9 5 Sudeste 8 Sudeste 0 -- -- 89
2020-01-11 19:00:00 2.7 6 Sudeste 10 Sudeste 0 -- -- 86
2020-01-11 18:00:00 4.1 6 Sudeste 10 Sudeste 0 -- -- 78
2020-01-11 17:00:00 8.9 4 Sudoeste 17 Noroeste 0 -- -- 62
2020-01-11 16:00:00 9.2 14 Noroeste 21 Noroeste 0 -- -- 62
2020-01-11 15:00:00 8.8 16 Noroeste 26 Noroeste 0 -- -- 64
2020-01-11 14:00:00 8.3 17 Noroeste 24 Oeste 0 -- -- 67
2020-01-11 13:00:00 7.5 16 Noroeste 27 Oeste 0 -- -- 67
2020-01-11 12:00:00 6.4 16 Noroeste 26 Noroeste 0 -- -- 70
2020-01-11 11:00:00 4.9 17 Noroeste 25 Noroeste 0 -- -- 79
2020-01-11 10:00:00 3.7 14 Noroeste 25 Noroeste 0 -- -- 82
2020-01-11 09:00:00 2.9 18 Noroeste 33 Noroeste 0 -- -- 84
2020-01-11 08:00:00 3 23 Noroeste 31 Noroeste 0 -- -- 82
2020-01-11 07:00:00 4.1 31 Noroeste 44 Noroeste 0 -- -- 76
2020-01-11 06:00:00 3.6 29 Noroeste 35 Noroeste 0 -- -- 81
2020-01-11 05:00:00 3.5 23 Noroeste 35 Noroeste 0 -- -- 83
2020-01-11 04:00:00 3.4 20 Noroeste 34 Noroeste 0 -- -- 84
2020-01-11 03:00:00 2.4 17 Noroeste 24 Noroeste 0 -- -- 89
2020-01-11 02:00:00 4.1 21 Noroeste 32 Norte 0 -- -- 80
2020-01-11 01:00:00 3.5 18 Noroeste 33 Noroeste 0 -- -- 88
2020-01-11 00:00:00 4.5 21 Noroeste 35 Noroeste 0 -- -- 81
2020-01-10 23:00:00 4.7 20 Noroeste 36 Noroeste 0 -- -- 85
2020-01-10 22:00:00 5.5 19 Noroeste 47 Oeste 0 -- -- 83
2020-01-10 21:00:00 5.8 21 Noroeste 41 Oeste 0 -- -- 86
2020-01-10 20:00:00 4.8 21 Noroeste 32 Oeste 0 -- -- 91
2020-01-10 19:00:00 5.2 27 Noroeste 39 Noroeste 0 -- -- 90
2020-01-10 18:00:00 6.1 21 Noroeste 37 Noroeste 0 -- -- 85
2020-01-10 17:00:00 6.8 26 Noroeste 38 Noroeste 0 -- -- 81
2020-01-10 16:00:00 7.1 21 Noroeste 40 Noroeste 0 -- -- 81
2020-01-10 15:00:00 6.6 21 Noroeste 36 Noroeste 0 -- -- 89
2020-01-10 14:00:00 7.3 30 Noroeste 44 Noroeste 0 -- -- 83
2020-01-10 13:00:00 6.4 27 Noroeste 39 Noroeste 0 -- -- 91
2020-01-10 12:00:00 5.7 23 Noroeste 34 Noroeste 0 -- -- 95
2020-01-10 11:00:00 5.5 20 Noroeste 30 Noroeste 0 -- -- 94
2020-01-10 10:00:00 4.8 23 Noroeste 32 Noroeste 0.4 -- -- 94
2020-01-10 09:00:00 4.2 18 Noroeste 27 Noroeste 0 -- -- 94
2020-01-10 08:00:00 4.5 19 Noroeste 31 Noroeste 0 -- -- 90
2020-01-10 07:00:00 4.4 20 Noroeste 35 Noroeste 0 -- -- 87
2020-01-10 06:00:00 5.3 24 Noroeste 39 Noroeste 0 -- -- 85
2020-01-10 05:00:00 5.7 19 Noroeste 36 Noroeste 0 -- -- 84
2020-01-10 04:00:00 6.1 28 Noroeste 43 Noroeste 0 -- -- 85
2020-01-10 03:00:00 6.3 23 Noroeste 41 Noroeste 0 -- -- 85
2020-01-10 02:00:00 5.9 16 Noroeste 28 Noroeste 0 -- -- 87
2020-01-10 01:00:00 5.7 18 Noroeste 24 Noroeste 0 -- -- 90
2020-01-10 00:00:00 6.1 16 Noroeste 32 Noroeste 0 -- -- 89
2020-01-09 23:00:00 6.1 19 Noroeste 26 Noroeste 0.6 -- -- 95
2020-01-09 22:00:00 4.3 2 Oeste 8 Norte 0.8 -- -- 100
2020-01-09 21:00:00 4.1 3 Noroeste 13 Nordeste 0.6 -- -- 100
2020-01-09 20:00:00 3.7 3 Sudeste 23 Noroeste 0 -- -- 100
2020-01-09 19:00:00 3.8 21 Noroeste 30 Noroeste 0 -- -- 100
2020-01-09 18:00:00 3.3 11 Noroeste 22 Noroeste 0 -- -- 99
2020-01-09 17:00:00 4.5 13 Noroeste 24 Noroeste 0 -- -- 97
2020-01-09 16:00:00 10.9 23 Sudeste 36 Sudeste 0 -- -- 67
2020-01-09 15:00:00 6.7 16 Noroeste 27 Noroeste 0 -- -- 98
2020-01-09 14:00:00 6.9 5 Sudeste 30 Noroeste 0 -- -- 100
2020-01-09 13:00:00 4.5 19 Noroeste 24 Noroeste 0 -- -- 100
2020-01-09 12:00:00 4.2 3 Este 9 Sudeste 0 -- -- 100
2020-01-09 11:00:00 2.6 0 Calma 18 Noroeste 0 -- -- 100
2020-01-09 10:00:00 1.6 9 Noroeste 20 Noroeste 0 -- -- 100
2020-01-09 09:00:00 0 8 Sudeste 17 Sudeste 0 -- -- 100
2020-01-09 08:00:00 0.5 5 Sudeste 6 Sudeste 0 -- -- 100
2020-01-09 07:00:00 0.6 2 Noroeste 6 Oeste 0 -- -- 100
2020-01-09 06:00:00 -0.2 0 Calma 6 Sudeste 0 -- -- 100
2020-01-09 05:00:00 0.2 3 Sudeste 8 Sudeste 0 -- -- 100
2020-01-09 04:00:00 0.3 4 Noroeste 14 Este 0 -- -- 100
2020-01-09 03:00:00 0 14 Sudeste 17 Sudeste 0 -- -- 100
2020-01-09 02:00:00 0.5 12 Noroeste 14 Noroeste 0 -- -- 100
2020-01-09 01:00:00 0.3 0 Calma 4 Sudeste 0 -- -- 100
2020-01-09 00:00:00 1 0 Calma 5 Noroeste 0 -- -- 100
2020-01-08 23:00:00 1.5 4 Noroeste 6 Sudeste 0 -- -- 99
2020-01-08 22:00:00 2.1 0 Calma 10 Noroeste 0 -- -- 98
2020-01-08 21:00:00 3.4 2 Noroeste 6 Noroeste 0 -- -- 95
2020-01-08 20:00:00 4.4 0 Calma 6 Noroeste 0 -- -- 94
2020-01-08 19:00:00 5.6 5 Noroeste 10 Noroeste 0 -- -- 90
2020-01-08 18:00:00 6.9 6 Noroeste 13 Noroeste 0 -- -- 87
2020-01-08 17:00:00 9.2 10 Noroeste 19 Noroeste 0 -- -- 84
2020-01-08 16:00:00 11.7 9 Noroeste 18 Noroeste 0 -- -- 77
2020-01-08 15:00:00 14.8 14 Sudoeste 23 Sudoeste 0 -- -- 61
2020-01-08 14:00:00 15.2 4 Sur 9 Noroeste 0 -- -- 65
2020-01-08 13:00:00 13.6 5 Noroeste 12 Noroeste 0 -- -- 69
2020-01-08 12:00:00 12 6 Noroeste 14 Noroeste 0 -- -- 75
2020-01-08 11:00:00 10.5 8 Noroeste 19 Noroeste 0 -- -- 81
2020-01-08 10:00:00 8.5 9 Noroeste 17 Noroeste 0 -- -- 86
2020-01-08 09:00:00 7.9 10 Oeste 26 Noroeste 0 -- -- 87
2020-01-08 08:00:00 8.3 18 Noroeste 25 Noroeste 0 -- -- 88
2020-01-08 07:00:00 8.6 20 Noroeste 32 Noroeste 0 -- -- 87
2020-01-08 06:00:00 8.7 23 Noroeste 44 Noroeste 0 -- -- 87
2020-01-08 05:00:00 8.8 26 Noroeste 32 Noroeste 0 -- -- 86
2020-01-08 04:00:00 8.4 23 Noroeste 46 Noroeste 0 -- -- 87
2020-01-08 03:00:00 8.6 32 Noroeste 41 Noroeste 0 -- -- 86
2020-01-08 02:00:00 8.7 32 Noroeste 42 Oeste 0 -- -- 85
2020-01-08 01:00:00 8.2 25 Noroeste 37 Noroeste 0 -- -- 87
2020-01-08 00:00:00 8.1 27 Noroeste 38 Noroeste 0 -- -- 87
2020-01-07 23:00:00 8.3 26 Noroeste 33 Noroeste 0 -- -- 86
2020-01-07 22:00:00 8.1 16 Noroeste 30 Noroeste 0 -- -- 87
2020-01-07 21:00:00 8.7 26 Noroeste 32 Noroeste 0 -- -- 85
2020-01-07 20:00:00 9.5 22 Noroeste 33 Noroeste 0 -- -- 82
2020-01-07 19:00:00 10.1 26 Noroeste 32 Noroeste 0 -- -- 82
2020-01-07 18:00:00 11.5 23 Noroeste 29 Noroeste 0 -- -- 79
2020-01-07 17:00:00 12 18 Noroeste 28 Noroeste 0 -- -- 77
2020-01-07 16:00:00 12.5 25 Noroeste 36 Noroeste 0 -- -- 73
2020-01-07 15:00:00 11.9 21 Noroeste 30 Noroeste 0 -- -- 74
2020-01-07 14:00:00 10.7 10 Noroeste 17 Noroeste 0 -- -- 78
2020-01-07 13:00:00 7.9 6 Noroeste 12 Noroeste 0 -- -- 82
2020-01-07 12:00:00 5.7 7 Noroeste 11 Noroeste 0 -- -- 90
2020-01-07 11:00:00 4.7 8 Noroeste 10 Noroeste 0 -- -- 91
2020-01-07 10:00:00 3.7 0 Calma 8 Norte 0 -- -- 96
2020-01-07 09:00:00 1.2 0 Calma 10 Noroeste 0 -- -- 100
2020-01-07 08:00:00 0.9 9 Noroeste 13 Noroeste 0 -- -- 99
2020-01-07 07:00:00 1.1 0 Calma 6 Sudoeste 0 -- -- 99
2020-01-07 06:00:00 1.8 2 Noroeste 5 Norte 0 -- -- 97
2020-01-07 05:00:00 2.9 2 Sudoeste 23 Noroeste 0 -- -- 95
2020-01-07 04:00:00 4.1 19 Noroeste 32 Noroeste 0 -- -- 92
2020-01-07 03:00:00 4.6 22 Noroeste 29 Noroeste 0 -- -- 91
2020-01-07 02:00:00 4.6 22 Noroeste 32 Noroeste 0 -- -- 91
2020-01-07 01:00:00 5.1 21 Noroeste 28 Noroeste 0 -- -- 89
2020-01-07 00:00:00 4.5 15 Noroeste 20 Noroeste 0 -- -- 91
2020-01-06 23:00:00 5.1 18 Noroeste 25 Noroeste 0 -- -- 89
2020-01-06 22:00:00 4.5 23 Noroeste 35 Noroeste 0 -- -- 90
2020-01-06 21:00:00 1.9 6 Noroeste 11 Noroeste 0 -- -- 95
2020-01-06 20:00:00 1.8 6 Este 9 Este 0 -- -- 94
2020-01-06 19:00:00 2.5 0 Calma 10 Noroeste 0 -- -- 96
2020-01-06 18:00:00 4.2 10 Noroeste 15 Noroeste 0 -- -- 89
2020-01-06 17:00:00 8 0 Calma 10 Noroeste 0 -- -- 73
2020-01-06 16:00:00 7.3 8 Noroeste 10 Noroeste 0 -- -- 78
2020-01-06 15:00:00 8.3 4 Noroeste 11 Noroeste 0 -- -- 71
2020-01-06 14:00:00 6.3 4 Noroeste 9 Noroeste 0 -- -- 79
2020-01-06 13:00:00 3.9 6 Noroeste 12 Noroeste 0 -- -- 89
2020-01-06 12:00:00 2.2 8 Noroeste 12 Noroeste 0 -- -- 90
2020-01-06 11:00:00 4.2 4 Sudeste 8 Sudeste 0 -- -- 86
2020-01-06 10:00:00 0.6 5 Este 9 Sudeste 0 -- -- 96